createdAt,value
2019-01-26T00:00:33.938Z,101108.00
2019-01-26T00:03:05.624Z,101107.63
2019-01-26T00:05:37.897Z,101112.72
2019-01-26T00:08:09.139Z,101108.47
2019-01-26T00:10:40.376Z,101102.50
2019-01-26T00:13:11.629Z,101094.50
2019-01-26T00:15:42.916Z,101092.59
2019-01-26T00:18:14.132Z,101100.14
2019-01-26T00:20:45.407Z,101089.06
2019-01-26T00:23:16.623Z,101087.71
2019-01-26T00:25:47.811Z,101087.96
2019-01-26T00:28:19.000Z,101074.23
2019-01-26T00:30:50.323Z,101077.73
2019-01-26T00:33:21.545Z,101069.59
2019-01-26T00:35:52.771Z,101068.24
2019-01-26T00:38:24.423Z,101066.89
2019-01-26T00:40:55.625Z,101058.62
2019-01-26T00:43:26.830Z,101057.99
2019-01-26T00:45:58.094Z,101057.07
2019-01-26T00:48:29.425Z,101053.23
2019-01-26T00:51:00.805Z,101045.07
2019-01-26T00:53:33.103Z,101055.28
2019-01-26T00:56:04.397Z,101045.42
2019-01-26T00:58:35.604Z,101047.09
2019-01-26T01:01:06.803Z,100974.16
2019-01-26T01:03:38.038Z,101037.20
2019-01-26T01:06:09.252Z,101026.72
2019-01-26T01:08:40.470Z,101031.71
2019-01-26T01:11:11.683Z,101027.84
2019-01-26T01:13:42.873Z,101027.69
2019-01-26T01:16:14.073Z,101023.91
2019-01-26T01:18:45.479Z,101027.88
2019-01-26T01:21:16.727Z,101018.91
2019-01-26T01:23:47.928Z,101014.27
2019-01-26T01:26:19.140Z,101022.99
2019-01-26T01:28:50.416Z,101008.55
2019-01-26T01:31:21.626Z,100999.42
2019-01-26T01:33:52.824Z,101001.87
2019-01-26T01:36:24.042Z,101001.64
2019-01-26T01:38:55.315Z,101001.02
2019-01-26T01:41:26.585Z,100993.72
2019-01-26T01:43:57.815Z,100997.09
2019-01-26T01:46:29.030Z,100940.73
2019-01-26T01:49:00.229Z,100996.07
2019-01-26T01:51:31.423Z,100996.95
2019-01-26T01:54:02.636Z,100991.61
2019-01-26T01:56:33.953Z,100985.19
2019-01-26T01:59:05.184Z,100981.43
2019-01-26T02:01:36.846Z,100980.30
2019-01-26T02:04:08.033Z,100973.50
2019-01-26T02:06:39.283Z,100974.44
2019-01-26T02:09:10.826Z,100973.47
2019-01-26T02:11:42.809Z,100967.34
2019-01-26T02:14:14.134Z,100957.88
2019-01-26T02:16:50.024Z,100961.05
2019-01-26T02:19:18.604Z,100956.67
2019-01-26T02:21:49.831Z,100951.70
2019-01-26T02:24:20.965Z,100949.71
2019-01-26T02:26:52.881Z,100946.62
2019-01-26T02:29:24.163Z,100954.63
2019-01-26T02:31:55.468Z,100947.58
2019-01-26T02:34:26.665Z,100941.98
2019-01-26T02:36:57.883Z,100934.88
2019-01-26T02:39:29.072Z,100934.85
2019-01-26T02:42:00.432Z,100932.34
2019-01-26T02:44:31.544Z,100927.66
2019-01-26T02:47:02.776Z,100915.67
2019-01-26T02:49:34.377Z,100913.59
2019-01-26T02:52:05.632Z,100919.64
2019-01-26T02:54:36.943Z,100906.99
2019-01-26T02:57:08.130Z,100917.42
2019-01-26T02:59:39.451Z,100911.23
2019-01-26T03:02:10.704Z,100904.69
2019-01-26T03:04:42.480Z,100912.48
2019-01-26T03:07:13.975Z,100908.28
2019-01-26T03:09:45.186Z,100906.80
2019-01-26T03:12:16.412Z,100903.88
2019-01-26T03:14:48.063Z,100900.50
2019-01-26T03:17:19.271Z,100894.89
2019-01-26T03:19:50.454Z,100899.42
2019-01-26T03:22:22.467Z,100895.38
2019-01-26T03:24:54.019Z,100898.20
2019-01-26T03:27:25.255Z,100898.91
2019-01-26T03:29:56.420Z,100898.31
2019-01-26T03:32:27.880Z,100891.74
2019-01-26T03:34:58.984Z,100892.23
2019-01-26T03:37:30.322Z,100893.56
2019-01-26T03:40:01.496Z,100888.22
2019-01-26T03:42:32.657Z,100894.90
2019-01-26T03:45:04.280Z,100887.95
2019-01-26T03:47:35.721Z,100887.36
2019-01-26T03:50:07.552Z,100885.98
2019-01-26T03:52:38.782Z,100885.73
2019-01-26T03:55:11.339Z,100876.01
2019-01-26T03:57:42.711Z,100883.06
2019-01-26T04:00:19.402Z,100883.06
2019-01-26T04:02:50.613Z,100875.75
2019-01-26T04:05:21.815Z,100873.85
2019-01-26T04:07:53.001Z,100868.76
2019-01-26T04:10:24.334Z,100875.34
2019-01-26T04:12:55.520Z,100866.09
2019-01-26T04:15:26.710Z,100870.09
2019-01-26T04:17:57.910Z,100864.50
2019-01-26T04:20:29.022Z,100867.05
2019-01-26T04:23:00.341Z,100862.41
2019-01-26T04:25:31.508Z,100866.91
2019-01-26T04:28:03.066Z,100865.56
2019-01-26T04:30:34.383Z,100853.64
2019-01-26T04:33:05.956Z,100851.67
2019-01-26T04:35:37.363Z,100840.28
2019-01-26T04:38:08.557Z,100840.17
2019-01-26T04:40:39.754Z,100843.66
2019-01-26T04:43:10.979Z,100831.36
2019-01-26T04:45:42.328Z,100832.77
2019-01-26T04:48:13.901Z,100837.94
2019-01-26T04:50:45.246Z,100832.77
2019-01-26T04:53:16.689Z,100831.59
2019-01-26T04:55:47.912Z,100833.77
2019-01-26T04:58:19.020Z,100835.78
2019-01-26T05:00:50.312Z,100831.62
2019-01-26T05:03:21.489Z,100826.93
2019-01-26T05:05:53.072Z,100831.36
2019-01-26T05:08:24.327Z,100831.84
2019-01-26T05:10:55.560Z,100829.39
2019-01-26T05:13:26.736Z,100823.07
2019-01-26T05:15:57.973Z,100826.71
2019-01-26T05:18:29.207Z,100824.19
2019-01-26T05:21:00.442Z,100819.06
2019-01-26T05:23:31.732Z,100822.33
2019-01-26T05:26:02.921Z,100821.95
2019-01-26T05:28:34.189Z,100826.02
2019-01-26T05:31:05.416Z,100819.23
2019-01-26T05:33:36.829Z,100819.23
2019-01-26T05:36:08.032Z,100824.30
2019-01-26T05:38:39.365Z,100820.39
2019-01-26T05:41:10.541Z,100824.47
2019-01-26T05:43:41.733Z,100822.77
2019-01-26T05:46:12.942Z,100827.69
2019-01-26T05:48:44.150Z,100818.70
2019-01-26T05:51:15.432Z,100820.09
2019-01-26T05:53:46.650Z,100813.34
2019-01-26T05:56:17.824Z,100822.44
2019-01-26T05:58:49.074Z,100814.14
2019-01-26T06:01:20.368Z,100818.05
2019-01-26T06:03:51.562Z,100821.63
2019-01-26T06:06:22.760Z,100821.80
2019-01-26T06:08:53.949Z,100816.82
2019-01-26T06:11:25.179Z,100816.73
2019-01-26T06:13:56.952Z,100819.29
2019-01-26T06:16:28.131Z,100819.56
2019-01-26T06:18:59.347Z,100821.97
2019-01-26T06:21:30.521Z,100809.56
2019-01-26T06:24:01.745Z,100811.97
2019-01-26T06:26:32.927Z,100806.89
2019-01-26T06:29:04.135Z,100814.36
2019-01-26T06:31:35.310Z,100799.87
2019-01-26T06:34:06.484Z,100796.98
2019-01-26T06:36:38.388Z,100798.59
2019-01-26T06:39:09.618Z,100807.89
2019-01-26T06:41:40.882Z,100804.58
2019-01-26T06:44:12.102Z,100803.15
2019-01-26T06:46:44.013Z,100799.60
2019-01-26T06:49:15.186Z,100801.11
2019-01-26T06:51:55.620Z,100790.42
2019-01-26T06:54:26.836Z,100790.42
2019-01-26T06:56:58.061Z,100801.48
2019-01-26T06:59:29.344Z,100793.09
2019-01-26T07:02:00.535Z,100801.80
2019-01-26T07:04:50.631Z,100801.97
2019-01-26T07:07:22.339Z,100800.41
2019-01-26T07:09:54.241Z,100800.20
2019-01-26T07:12:25.446Z,100795.22
2019-01-26T07:14:56.939Z,100797.20
2019-01-26T07:17:28.214Z,100802.81
2019-01-26T07:19:59.408Z,100802.45
2019-01-26T07:22:31.098Z,100795.86
2019-01-26T07:25:02.702Z,100802.11
2019-01-26T07:27:33.812Z,100798.16
2019-01-26T07:30:07.414Z,100798.58
2019-01-26T07:32:38.791Z,100803.63
2019-01-26T07:35:09.959Z,100790.35
2019-01-26T07:37:41.305Z,100798.70
2019-01-26T07:40:16.180Z,100799.98
2019-01-26T07:42:49.694Z,100800.61
2019-01-26T07:45:21.075Z,100793.36
2019-01-26T07:47:52.711Z,100789.92
2019-01-26T07:50:25.307Z,100793.03
2019-01-26T07:52:56.688Z,100792.75
2019-01-26T07:55:27.837Z,100795.53
2019-01-26T07:57:59.278Z,100799.39
2019-01-26T08:00:30.464Z,100799.81
2019-01-26T08:03:02.640Z,100799.11
2019-01-26T08:05:34.021Z,100803.66
2019-01-26T08:08:05.370Z,100793.70
2019-01-26T08:10:36.686Z,100794.19
2019-01-26T08:13:08.358Z,100792.06
2019-01-26T08:15:39.597Z,100785.00
2019-01-26T08:18:11.086Z,100785.00
2019-01-26T08:20:42.734Z,100790.42
2019-01-26T08:23:14.024Z,100722.06
2019-01-26T08:25:45.272Z,100791.32
2019-01-26T08:28:16.501Z,100794.91
2019-01-26T08:30:47.947Z,100784.70
2019-01-26T08:33:19.255Z,100791.75
2019-01-26T08:35:50.432Z,100789.61
2019-01-26T08:38:21.662Z,100792.55
2019-01-26T08:40:52.885Z,100786.88
2019-01-26T08:43:25.674Z,100792.81
2019-01-26T08:45:56.840Z,100787.38
2019-01-26T08:48:31.315Z,100792.58
2019-01-26T08:51:02.353Z,100789.42
2019-01-26T08:53:33.976Z,100787.38
2019-01-26T08:56:05.513Z,100795.13
2019-01-26T08:58:36.733Z,100791.36
2019-01-26T09:01:07.893Z,100793.40
2019-01-26T09:03:59.149Z,100788.42
2019-01-26T09:06:42.834Z,100794.14
2019-01-26T09:09:14.709Z,100792.23
2019-01-26T09:11:46.061Z,100793.36
2019-01-26T09:14:19.657Z,100797.20
2019-01-26T09:16:50.839Z,100797.47
2019-01-26T09:19:22.641Z,100798.87
2019-01-26T09:21:53.894Z,100793.13
2019-01-26T09:24:25.269Z,100802.06
2019-01-26T09:26:56.625Z,100798.75
2019-01-26T09:29:27.766Z,100795.66
2019-01-26T09:31:58.886Z,100797.62
2019-01-26T09:34:29.964Z,100798.39
2019-01-26T09:37:01.201Z,100791.70
2019-01-26T09:39:32.625Z,100793.77
2019-01-26T09:42:03.837Z,100790.88
2019-01-26T09:44:35.297Z,100790.25
2019-01-26T09:47:06.468Z,100792.56
2019-01-26T09:49:37.667Z,100801.22
2019-01-26T09:52:08.827Z,100791.44
2019-01-26T09:54:40.236Z,100801.27
2019-01-26T09:57:11.372Z,100799.08
2019-01-26T09:59:43.387Z,100796.02
2019-01-26T10:02:14.579Z,100790.36
2019-01-26T10:04:45.673Z,100793.98
2019-01-26T10:07:16.847Z,100794.20
2019-01-26T10:09:49.383Z,100794.70
2019-01-26T10:12:23.614Z,100793.16
2019-01-26T10:14:58.030Z,100801.69
2019-01-26T10:17:29.209Z,100796.64
2019-01-26T10:20:00.610Z,100798.98
2019-01-26T10:22:31.821Z,100793.25
2019-01-26T10:25:04.045Z,100792.05
2019-01-26T10:27:35.296Z,100792.80
2019-01-26T10:30:08.997Z,100787.55
2019-01-26T10:32:43.129Z,100774.30
2019-01-26T10:35:14.669Z,100778.92
2019-01-26T10:37:49.937Z,100776.08
2019-01-26T10:40:38.992Z,100781.16
2019-01-26T10:43:10.387Z,100772.56
2019-01-26T10:45:41.536Z,100769.77
2019-01-26T10:48:15.936Z,100770.45
2019-01-26T10:50:50.893Z,100768.87
2019-01-26T10:53:26.582Z,100768.97
2019-01-26T10:56:02.777Z,100777.06
2019-01-26T10:58:35.022Z,100766.09
2019-01-26T11:01:06.689Z,100769.23
2019-01-26T11:03:41.373Z,100774.94
2019-01-26T11:06:12.823Z,100778.31
2019-01-26T11:08:44.021Z,100777.47
2019-01-26T11:11:15.440Z,100777.51
2019-01-26T11:13:46.649Z,100780.92
2019-01-26T11:16:17.940Z,100784.55
2019-01-26T11:18:49.008Z,100777.88
2019-01-26T11:21:20.262Z,100788.08
2019-01-26T11:23:53.446Z,100785.67
2019-01-26T11:26:25.334Z,100787.71
2019-01-26T11:28:56.514Z,100774.77
2019-01-26T11:31:28.055Z,100779.44
2019-01-26T11:33:59.449Z,100781.56
2019-01-26T11:36:30.658Z,100777.55
2019-01-26T11:39:03.677Z,100773.88
2019-01-26T11:41:35.340Z,100764.20
2019-01-26T11:44:07.042Z,100757.77
2019-01-26T11:46:45.688Z,100770.32
2019-01-26T11:49:16.870Z,100763.20
2019-01-26T11:52:07.490Z,100763.97
2019-01-26T11:54:57.556Z,100755.05
2019-01-26T11:57:32.831Z,100759.64
2019-01-26T12:00:28.279Z,100754.93
2019-01-26T12:03:05.477Z,100762.30
2019-01-26T12:05:42.129Z,100758.13
2019-01-26T12:08:14.084Z,100744.17
2019-01-26T12:10:45.275Z,100749.08
2019-01-26T12:13:16.438Z,100748.62
2019-01-26T12:15:47.631Z,100743.68
2019-01-26T12:18:18.796Z,100742.33
2019-01-26T12:20:49.963Z,100747.12
2019-01-26T12:23:21.125Z,100741.64
2019-01-26T12:25:52.897Z,100741.30
2019-01-26T12:28:24.227Z,100739.31
2019-01-26T12:30:56.892Z,100748.34
2019-01-26T12:33:28.154Z,100743.28
2019-01-26T12:35:59.390Z,100731.25
2019-01-26T12:38:30.821Z,100741.62
2019-01-26T12:41:02.725Z,100732.50
2019-01-26T12:43:34.052Z,100738.20
2019-01-26T12:46:05.308Z,100739.11
2019-01-26T12:48:37.439Z,100728.81
2019-01-26T12:51:53.070Z,100738.23
2019-01-26T12:54:15.675Z,100732.64
2019-01-26T12:56:46.977Z,100735.03
2019-01-26T12:59:18.138Z,100729.78
2019-01-26T13:01:49.422Z,100731.84
2019-01-26T13:04:20.581Z,100718.59
2019-01-26T13:06:51.773Z,100724.48
2019-01-26T13:09:22.943Z,100719.75
2019-01-26T13:11:54.271Z,100729.39
2019-01-26T13:14:25.342Z,100724.84
2019-01-26T13:16:56.503Z,100719.13
2019-01-26T13:19:27.695Z,100719.55
2019-01-26T13:21:59.139Z,100723.62
2019-01-26T14:20:23.989Z,100728.02
2019-01-26T14:22:55.316Z,100737.41
2019-01-26T14:25:26.577Z,100736.45
2019-01-26T14:27:57.782Z,100737.31
2019-01-26T14:30:34.678Z,100739.73
2019-01-26T14:33:06.008Z,100744.81
2019-01-26T14:35:38.697Z,100741.20
2019-01-26T14:38:09.927Z,100744.93
2019-01-26T14:40:41.097Z,100740.08
2019-01-26T14:43:12.708Z,100752.35
2019-01-26T14:45:44.306Z,100744.02
2019-01-26T14:48:21.779Z,100753.34
2019-01-26T14:50:53.580Z,100753.67
2019-01-26T14:53:25.106Z,100761.15
2019-01-26T14:55:56.533Z,100756.03
2019-01-26T14:58:27.763Z,100757.66
2019-01-26T15:00:59.318Z,100754.12
2019-01-26T15:03:30.680Z,100749.80
2019-01-26T15:06:02.434Z,100751.87
2019-01-26T15:08:34.048Z,100750.07
2019-01-26T15:11:05.357Z,100750.34
2019-01-26T15:13:36.761Z,100759.41
2019-01-26T15:16:10.399Z,100749.27
2019-01-26T15:18:42.289Z,100753.75
2019-01-26T15:21:13.677Z,100759.55
2019-01-26T15:23:44.884Z,100755.20
2019-01-26T15:26:16.162Z,100756.78
2019-01-26T15:28:49.438Z,100756.18
2019-01-26T15:31:20.592Z,100753.88
2019-01-26T15:33:52.150Z,100751.23
2019-01-26T15:36:23.636Z,100756.80
2019-01-26T15:38:54.947Z,100757.28
2019-01-26T15:41:26.189Z,100765.52
2019-01-26T15:43:59.453Z,100764.55
2019-01-26T15:46:30.608Z,100757.04
2019-01-26T15:49:02.448Z,100754.75
2019-01-26T15:51:33.668Z,100745.43
2019-01-26T15:54:05.233Z,100751.10
2019-01-26T15:56:38.244Z,100753.62
2019-01-26T15:59:09.603Z,100749.30
2019-01-26T16:01:41.930Z,100749.30
2019-01-26T16:04:14.945Z,100742.02
2019-01-26T16:06:46.519Z,100738.88
2019-01-26T16:09:17.704Z,100740.32
2019-01-26T16:11:48.918Z,100748.55
2019-01-26T16:14:24.798Z,100740.79
2019-01-26T16:16:55.998Z,100734.52
2019-01-26T16:19:27.254Z,100729.43
2019-01-26T16:22:01.214Z,100732.09
2019-01-26T16:24:34.723Z,100737.42
2019-01-26T16:27:08.698Z,100736.56
2019-01-26T16:29:39.910Z,100729.33
2019-01-26T16:32:11.110Z,100734.75
2019-01-26T16:34:44.046Z,100728.09
2019-01-26T16:37:21.204Z,100742.74
2019-01-26T16:39:52.979Z,100725.57
2019-01-26T16:42:25.299Z,100743.11
2019-01-26T16:44:56.519Z,100738.50
2019-01-26T16:47:27.714Z,100738.37
2019-01-26T16:49:58.918Z,100728.19
2019-01-26T16:52:30.198Z,100739.32
2019-01-26T16:55:01.421Z,100732.80
2019-01-26T16:57:35.415Z,100738.98
2019-01-26T17:00:12.494Z,100736.06
2019-01-26T17:02:44.340Z,100743.20
2019-01-26T17:05:17.172Z,100746.21
2019-01-26T17:07:53.217Z,100742.96
2019-01-26T17:10:26.041Z,100734.98
2019-01-26T17:12:57.268Z,100728.72
2019-01-26T17:15:28.491Z,100741.51
2019-01-26T17:17:59.731Z,100731.08
2019-01-26T17:20:35.162Z,100730.00
2019-01-26T17:23:17.150Z,100725.05
2019-01-26T17:25:48.460Z,100733.28
2019-01-26T17:28:19.681Z,100726.76
2019-01-26T17:30:50.903Z,100738.50
2019-01-26T17:33:22.117Z,100732.80
2019-01-26T17:35:53.310Z,100734.75
2019-01-26T17:38:24.612Z,100736.66
2019-01-26T17:40:55.688Z,100735.94
2019-01-26T17:43:27.040Z,100734.38
2019-01-26T17:45:58.226Z,100621.73
2019-01-26T17:48:29.500Z,100738.03
2019-01-26T17:51:00.707Z,100732.19
2019-01-26T17:53:31.900Z,100741.89
2019-01-26T18:03:42.292Z,100757.78
2019-01-26T18:06:32.085Z,100749.67
2019-01-26T18:09:21.330Z,100753.05
2019-01-26T18:12:10.273Z,100742.17
2019-01-26T18:15:00.879Z,100691.59
2019-01-26T18:17:51.239Z,100744.23
2019-01-26T18:20:41.127Z,100747.11
2019-01-26T18:23:32.777Z,100749.66
2019-01-26T18:26:41.913Z,100743.62
2019-01-26T18:29:53.519Z,100747.82
2019-01-26T18:32:26.774Z,100741.31
2019-01-26T18:35:16.833Z,100745.56
2019-01-26T18:38:09.573Z,100746.27
2019-01-26T18:41:00.744Z,100737.08
2019-01-26T18:43:50.078Z,100739.73
2019-01-26T18:46:41.551Z,100744.48
2019-01-26T18:49:33.195Z,100748.08
2019-01-26T18:52:22.732Z,100746.04
2019-01-26T18:55:12.830Z,100746.28
2019-01-26T18:58:24.192Z,100737.21
2019-01-26T19:01:32.953Z,100737.93
2019-01-26T19:04:41.887Z,100734.52
2019-01-26T19:07:54.018Z,100740.32
2019-01-26T19:10:59.707Z,100738.51
2019-01-26T19:14:00.473Z,100737.89
2019-01-26T19:20:29.306Z,100736.66
2019-01-26T19:23:43.933Z,100734.84
2019-01-26T19:26:54.806Z,100743.92
2019-01-26T19:29:36.974Z,100737.02
2019-01-26T19:32:15.482Z,100749.48
2019-01-26T19:34:56.515Z,100741.72
2019-01-26T19:37:49.677Z,100746.80
2019-01-26T19:40:18.726Z,100481.05
2019-01-26T19:42:52.521Z,100747.14
2019-01-26T19:45:36.057Z,100749.42
2019-01-26T19:48:11.236Z,100736.22
2019-01-26T19:50:47.515Z,100740.84
2019-01-26T19:53:27.706Z,100729.59
2019-01-26T19:56:02.973Z,100736.72
2019-01-26T19:58:38.147Z,100728.70
2019-01-26T20:01:10.428Z,100729.99
2019-01-26T20:03:42.771Z,100729.99
2019-01-26T20:06:18.146Z,100725.63
2019-01-26T20:09:01.760Z,100723.21
2019-01-26T20:11:37.184Z,100719.80
2019-01-26T20:14:29.142Z,100703.16
2019-01-26T20:17:07.220Z,100708.53
2019-01-26T20:20:00.199Z,100707.03
2019-01-26T20:22:52.062Z,100698.72
2019-01-26T20:25:30.383Z,100696.77
2019-01-26T20:28:01.659Z,100694.10
2019-01-26T20:30:39.082Z,100692.15
2019-01-26T20:33:14.592Z,100695.80
2019-01-26T20:35:49.964Z,100694.35
2019-01-26T20:38:29.817Z,100695.06
2019-01-26T20:41:02.190Z,100697.34
2019-01-26T20:43:41.463Z,100605.27
2019-01-26T20:46:20.209Z,100694.26
2019-01-26T20:48:51.485Z,100697.72
2019-01-26T20:51:24.910Z,100693.97
2019-01-26T20:53:58.799Z,100699.91
2019-01-26T20:56:32.125Z,100697.49
2019-01-26T20:59:03.912Z,100700.41
2019-01-26T21:01:39.761Z,100705.63
2019-01-26T21:04:11.059Z,100704.84
2019-01-26T21:06:42.898Z,100704.59
2019-01-26T21:09:14.100Z,100692.70
2019-01-26T21:11:45.870Z,100706.29
2019-01-26T21:14:20.188Z,100699.96
2019-01-26T21:16:51.408Z,100692.84
2019-01-26T21:19:27.238Z,100696.30
2019-01-26T21:21:58.516Z,100698.03
2019-01-26T21:24:32.545Z,100691.39
2019-01-26T21:27:04.040Z,100691.73
2019-01-26T21:29:35.391Z,100691.45
2019-01-26T21:32:06.915Z,100705.47
2019-01-26T21:34:38.480Z,100694.43
2019-01-26T21:37:09.798Z,100681.17
2019-01-26T21:39:40.888Z,100688.13
2019-01-26T21:42:12.821Z,100688.58
2019-01-26T21:44:44.035Z,100697.47
2019-01-26T21:47:15.243Z,100692.22
2019-01-26T21:49:46.424Z,100689.18
2019-01-26T21:52:17.751Z,100692.81
2019-01-26T21:54:48.926Z,100689.89
2019-01-26T21:57:20.126Z,100687.17
2019-01-26T21:59:51.323Z,100681.84
2019-01-26T22:02:22.905Z,100691.62
2019-01-26T22:04:54.137Z,100689.30
2019-01-26T22:07:25.416Z,100685.41
2019-01-26T22:09:56.805Z,100683.36
2019-01-26T22:12:28.014Z,100674.87
2019-01-26T22:14:59.218Z,100677.30
2019-01-26T22:17:30.423Z,100679.08
2019-01-26T22:20:01.706Z,100675.45
2019-01-26T22:22:34.058Z,100678.05
2019-01-26T22:25:06.945Z,100678.52
2019-01-26T22:27:38.269Z,100672.42
2019-01-26T22:30:13.442Z,100679.16
2019-01-26T22:32:44.713Z,100679.97
2019-01-26T22:35:16.122Z,100687.67
2019-01-26T22:37:47.476Z,100676.48
2019-01-26T22:40:29.907Z,100684.60
2019-01-26T22:43:01.254Z,100688.52
2019-01-26T22:45:32.809Z,100692.60
2019-01-26T22:48:04.031Z,100691.64
2019-01-26T22:50:35.330Z,100687.86
2019-01-26T22:53:06.557Z,100693.53
2019-01-26T22:55:37.785Z,100695.83
2019-01-26T22:58:09.029Z,100698.83
2019-01-26T23:01:09.316Z,100701.68
2019-01-26T23:04:24.185Z,100695.72
2019-01-26T23:07:24.400Z,100693.16
2019-01-26T23:10:31.773Z,100688.16
2019-01-26T23:13:39.952Z,100696.20
2019-01-26T23:16:42.119Z,100704.80
2019-01-26T23:19:47.735Z,100706.48
2019-01-26T23:22:47.307Z,100698.88
2019-01-26T23:25:52.523Z,100698.88
2019-01-26T23:28:59.184Z,100694.13
2019-01-26T23:31:30.388Z,100697.15
2019-01-26T23:34:01.583Z,100704.08
2019-01-26T23:36:32.780Z,100697.48
2019-01-26T23:39:05.274Z,100697.77
2019-01-26T23:41:36.937Z,100712.35
2019-01-26T23:44:08.150Z,100706.05
2019-01-26T23:46:39.372Z,100700.80
2019-01-26T23:49:10.699Z,100703.98
2019-01-26T23:51:41.905Z,100708.13
2019-01-26T23:54:13.104Z,100703.08
2019-01-26T23:56:44.312Z,100706.88
2019-01-26T23:59:15.486Z,100700.61
